Time;durP1;ratioP1;P1;durP2;ratioP2;P2;SDS_P1;SDS_P2;PMS_P1;PMS_P2;Temp;Humidity;BMP_temperature;BMP_pressure;BME280_temperature;BME280_humidity;BME280_pressure;Samples;Min_cycle;Max_cycle;Signal;HPM_P1;HPM_P2
2022/10/02 00:02:28;;;;;;;91.57;83.75;;;;;;;18.22;100.00;100594.22;6217577;23;19915;-80
2022/10/02 00:04:59;;;;;;;104.45;96.38;;;;;;;18.38;100.00;100602.38;6219376;23;20024;-80
2022/10/02 00:07:32;;;;;;;91.28;84.20;;;;;;;18.62;100.00;100597.41;6216940;23;20116;-81
2022/10/02 00:10:03;;;;;;;80.47;73.57;;;;;;;19.05;100.00;100582.78;6218579;23;20086;-80
2022/10/02 00:12:31;;;;;;;74.25;68.30;;;;;;;19.02;100.00;100555.59;6218289;23;20118;-80
2022/10/02 00:15:07;;;;;;;77.30;70.90;;;;;;;19.09;100.00;100538.13;6217420;23;20090;-80
2022/10/02 00:17:40;;;;;;;81.43;74.68;;;;;;;19.03;100.00;100535.66;6216336;23;20099;-80
2022/10/02 00:20:13;;;;;;;84.45;77.65;;;;;;;19.02;100.00;100529.47;6217362;23;20457;-79
2022/10/02 00:22:50;;;;;;;83.45;77.05;;;;;;;18.95;100.00;100528.94;6216781;23;20028;-80
2022/10/02 00:25:25;;;;;;;78.15;71.75;;;;;;;18.87;100.00;100534.81;6217575;23;20342;-80
2022/10/02 00:28:16;;;;;;;78.68;72.43;;;;;;;18.81;100.00;100549.34;6217072;23;20028;-80
2022/10/02 00:30:57;;;;;;;88.20;81.05;;;;;;;18.77;100.00;100531.03;6218334;23;20036;-80
2022/10/02 00:33:32;;;;;;;89.05;82.28;;;;;;;18.80;100.00;100527.00;6217522;23;20110;-80
2022/10/02 00:36:11;;;;;;;88.90;82.20;;;;;;;18.67;100.00;100536.38;6217478;23;20436;-80
2022/10/02 00:38:51;;;;;;;89.47;82.50;;;;;;;18.79;100.00;100543.41;6216526;23;20508;-81
2022/10/02 00:41:56;;;;;;;86.68;79.90;;;;;;;18.82;100.00;100542.88;6217733;23;20028;-80
2022/10/02 00:44:39;;;;;;;88.80;82.03;;;;;;;18.87;100.00;100541.00;6196102;23;20039;-80
2022/10/02 00:47:16;;;;;;;88.22;81.45;;;;;;;18.81;100.00;100528.63;6217234;23;20024;-80
2022/10/02 00:49:58;;;;;;;87.10;80.68;;;;;;;18.73;100.00;100529.16;6218228;23;20024;-80
2022/10/02 00:52:44;;;;;;;92.25;85.32;;;;;;;18.93;100.00;100507.66;6217557;23;20481;-80
2022/10/02 00:55:28;;;;;;;96.85;90.20;;;;;;;18.82;100.00;100506.03;6217794;23;20086;-82
2022/10/02 00:58:15;;;;;;;86.57;79.90;;;;;;;18.82;100.00;100503.34;6217949;23;20025;-80
2022/10/02 01:00:50;;;;;;;88.38;81.53;;;;;;;18.87;100.00;100497.16;6217036;23;20025;-81
2022/10/02 01:03:23;;;;;;;93.03;86.35;;;;;;;18.83;100.00;100488.81;6218201;23;20020;-80
2022/10/02 01:05:51;;;;;;;86.00;79.50;;;;;;;18.83;100.00;100498.78;6216626;23;20088;-80
2022/10/02 01:08:20;;;;;;;87.97;81.15;;;;;;;18.82;100.00;100495.28;6217064;23;20051;-80
2022/10/02 01:10:48;;;;;;;96.18;89.28;;;;;;;18.70;100.00;100490.09;6217120;23;20021;-79
2022/10/02 01:13:15;;;;;;;81.65;75.22;;;;;;;18.79;100.00;100470.75;6216441;23;20024;-80
2022/10/02 01:15:46;;;;;;;84.22;77.93;;;;;;;18.75;100.00;100463.22;6217348;23;20094;-81
2022/10/02 01:18:14;;;;;;;84.17;77.80;;;;;;;18.77;100.00;100462.97;6216969;23;20021;-80
2022/10/02 01:20:46;;;;;;;96.20;89.22;;;;;;;18.76;100.00;100462.19;6216349;23;20248;-81
2022/10/02 01:23:26;;;;;;;94.95;88.28;;;;;;;18.69;100.00;100441.94;6216527;23;20441;-80
2022/10/02 01:25:55;;;;;;;116.88;110.03;;;;;;;18.63;100.00;100434.94;6218599;23;20029;-80
2022/10/02 01:28:24;;;;;;;109.65;102.55;;;;;;;18.63;100.00;100453.75;6217876;23;20035;-80
2022/10/02 01:30:57;;;;;;;124.80;116.55;;;;;;;18.55;100.00;100455.09;6216442;23;20036;-79
2022/10/02 01:33:24;;;;;;;;;;;;;;;18.49;100.00;100456.16;6217578;23;20024;-80
2022/10/02 01:35:52;;;;;;;98.35;91.65;;;;;;;18.57;100.00;100465.59;6216996;23;19916;-79
2022/10/02 01:38:22;;;;;;;91.32;84.90;;;;;;;18.48;100.00;100462.59;6216976;23;20025;-80
2022/10/02 01:40:49;;;;;;;89.63;83.22;;;;;;;18.48;100.00;100455.34;6217068;23;20095;-80
2022/10/02 01:43:19;;;;;;;88.20;81.57;;;;;;;18.48;100.00;100444.56;6217311;23;20103;-79
2022/10/02 01:45:56;;;;;;;87.78;81.10;;;;;;;18.47;100.00;100445.66;6217192;23;20079;-79
2022/10/02 01:48:34;;;;;;;90.22;83.15;;;;;;;18.42;100.00;100452.91;6216446;23;20457;-79
2022/10/02 01:51:13;;;;;;;101.22;94.43;;;;;;;18.48;100.00;100451.84;6216101;23;20441;-79
2022/10/02 01:53:47;;;;;;;90.97;84.35;;;;;;;18.45;100.00;100469.31;6216937;23;20020;-81
2022/10/02 01:56:19;;;;;;;105.03;97.85;;;;;;;18.52;100.00;100472.56;6217434;23;20039;-80
2022/10/02 01:59:00;;;;;;;69.15;64.03;;;;;;;18.61;100.00;100496.25;6217188;23;20444;-80
2022/10/02 02:01:43;;;;;;;75.55;69.90;;;;;;;18.68;100.00;100491.44;6210820;22;20425;-80
2022/10/02 02:04:22;;;;;;;83.05;77.07;;;;;;;18.79;100.00;100498.50;6217143;23;20021;-81
2022/10/02 02:06:57;;;;;;;77.63;71.45;;;;;;;18.93;100.00;100504.16;6215548;23;20527;-78
2022/10/02 02:09:33;;;;;;;63.45;58.15;;;;;;;19.15;100.00;100498.53;6217893;23;20087;-82
2022/10/02 02:12:07;;;;;;;67.65;62.10;;;;;;;18.85;100.00;100493.91;6216406;23;20433;-80
2022/10/02 02:14:42;;;;;;;76.57;70.35;;;;;;;19.19;100.00;100483.47;6216300;23;20100;-80
2022/10/02 02:17:15;;;;;;;85.68;80.32;;;;;;;19.05;100.00;100479.69;6217567;23;20106;-79
2022/10/02 02:19:48;;;;;;;67.57;62.40;;;;;;;18.97;100.00;100472.94;6216543;23;20020;-79
2022/10/02 02:22:21;;;;;;;56.10;51.75;;;;;;;19.14;100.00;100472.69;6216631;23;20416;-79
2022/10/02 02:24:53;;;;;;;76.57;70.93;;;;;;;18.81;100.00;100479.38;6217229;23;20020;-79
2022/10/02 02:27:25;;;;;;;71.15;65.80;;;;;;;18.76;100.00;100483.69;6216325;23;20024;-80
2022/10/02 02:30:00;;;;;;;68.63;63.35;;;;;;;18.83;100.00;100486.13;6216340;23;20024;-79
2022/10/02 02:32:30;;;;;;;81.15;75.05;;;;;;;18.59;100.00;100487.66;6216599;23;20029;-80
2022/10/02 02:35:01;;;;;;;83.95;77.95;;;;;;;18.51;100.00;100476.31;6216405;23;20024;-79
2022/10/02 02:37:34;;;;;;;80.30;74.65;;;;;;;18.53;100.00;100478.75;6217715;23;20044;-81
2022/10/02 02:40:06;;;;;;;86.88;80.68;;;;;;;18.49;100.00;100462.34;6218907;23;20388;-79
2022/10/02 02:42:38;;;;;;;83.07;77.23;;;;;;;18.54;100.00;100473.09;6218071;23;20345;-84
2022/10/02 02:45:13;;;;;;;67.68;62.67;;;;;;;18.74;100.00;100461.63;6218285;23;20082;-79
2022/10/02 02:47:45;;;;;;;64.45;59.85;;;;;;;18.44;100.00;100464.22;6218679;23;20072;-81
2022/10/02 02:50:17;;;;;;;65.88;61.15;;;;;;;18.57;100.00;100465.59;6217292;23;20445;-80
2022/10/02 02:52:48;;;;;;;63.90;59.60;;;;;;;18.39;100.00;100477.63;6218570;23;20032;-80
2022/10/02 02:55:19;;;;;;;65.53;60.92;;;;;;;18.50;100.00;100476.59;6218996;23;20051;-80
2022/10/02 02:57:55;;;;;;;46.88;43.58;;;;;;;18.69;100.00;100480.41;6218150;23;20016;-80
2022/10/02 03:00:24;;;;;;;51.88;48.05;;;;;;;18.52;100.00;100479.84;6218393;23;20094;-81
2022/10/02 03:02:53;;;;;;;52.13;48.53;;;;;;;18.83;100.00;100480.75;6217680;23;20016;-80
2022/10/02 03:05:21;;;;;;;48.30;45.10;;;;;;;18.77;100.00;100479.91;6217703;23;20024;-80
2022/10/02 03:07:52;;;;;;;46.08;42.88;;;;;;;18.93;100.00;100490.72;6218664;23;20090;-80
2022/10/02 03:10:29;;;;;;;48.78;45.40;;;;;;;18.90;100.00;100483.97;6217921;23;20091;-80
2022/10/02 03:13:08;;;;;;;43.88;41.17;;;;;;;19.21;100.00;100474.06;6219786;23;20029;-80
2022/10/02 03:15:47;;;;;;;42.80;39.78;;;;;;;18.78;100.00;100486.09;6218421;23;20024;-80
2022/10/02 03:18:29;;;;;;;39.42;36.83;;;;;;;18.88;100.00;100488.84;6218207;23;20095;-79
2022/10/02 03:21:08;;;;;;;34.55;32.55;;;;;;;19.44;100.00;100488.84;6218845;23;20094;-79
2022/10/02 03:23:46;;;;;;;34.78;32.50;;;;;;;19.75;100.00;100488.03;6218414;23;20021;-80
2022/10/02 03:26:19;;;;;;;34.17;32.08;;;;;;;19.27;100.00;100500.97;6217478;23;20441;-80
2022/10/02 03:28:52;;;;;;;38.33;35.85;;;;;;;18.80;100.00;100508.19;6147533;23;20025;-80
2022/10/02 03:31:22;;;;;;;34.53;32.33;;;;;;;19.15;100.00;100502.06;6155259;23;20350;-78
2022/10/02 03:33:52;;;;;;;39.10;36.47;;;;;;;18.13;100.00;100506.28;6156389;23;20025;-79
2022/10/02 03:36:20;;;;;;;35.08;33.13;;;;;;;18.95;100.00;100499.34;6159470;23;20021;-80
2022/10/02 03:38:49;;;;;;;36.95;34.65;;;;;;;18.80;100.00;100515.44;6156533;23;20028;-79
2022/10/02 03:41:15;;;;;;;36.78;34.67;;;;;;;18.83;100.00;100523.78;6156201;23;20021;-80
2022/10/02 03:43:42;;;;;;;37.70;35.30;;;;;;;18.62;100.00;100528.28;6158506;23;20019;-79
2022/10/02 03:46:10;;;;;;;34.53;31.98;;;;;;;19.49;100.00;100519.56;6157752;23;20025;-78
2022/10/02 03:48:39;;;;;;;36.03;33.72;;;;;;;18.35;100.00;100512.28;6158916;23;20036;-79
2022/10/02 03:51:06;;;;;;;38.90;36.40;;;;;;;17.69;100.00;100520.75;6156359;23;20029;-79
2022/10/02 03:53:34;;;;;;;39.70;36.78;;;;;;;18.00;100.00;100523.66;6159592;23;20021;-79
2022/10/02 03:56:06;;;;;;;37.33;34.92;;;;;;;18.19;100.00;100524.88;6158765;23;20325;-80
2022/10/02 03:58:34;;;;;;;39.20;36.60;;;;;;;17.57;100.00;100530.88;6156940;23;20013;-80
2022/10/02 04:01:06;;;;;;;44.05;40.42;;;;;;;17.93;100.00;100537.34;6156913;23;20088;-79
2022/10/02 04:03:36;;;;;;;40.97;37.70;;;;;;;18.61;100.00;100547.34;6159322;23;20017;-80
2022/10/02 04:06:11;;;;;;;35.15;32.80;;;;;;;18.26;100.00;100548.81;6158356;23;20021;-80
2022/10/02 04:08:43;;;;;;;35.55;33.17;;;;;;;17.91;100.00;100547.50;6159703;23;20033;-80
2022/10/02 04:11:16;;;;;;;40.13;37.53;;;;;;;17.71;100.00;100550.84;6158837;23;20017;-79
2022/10/02 04:13:47;;;;;;;35.25;33.05;;;;;;;18.06;100.00;100536.06;6157408;23;20339;-80
2022/10/02 04:16:20;;;;;;;35.42;33.00;;;;;;;17.74;100.00;100552.22;6158653;23;20013;-81
2022/10/02 04:18:54;;;;;;;36.22;33.55;;;;;;;18.17;100.00;100545.00;6157666;23;20021;-79
2022/10/02 04:21:33;;;;;;;39.65;37.05;;;;;;;17.51;100.00;100564.91;6159291;23;20025;-80
2022/10/02 04:24:08;;;;;;;41.17;38.20;;;;;;;17.72;100.00;100563.22;6158010;23;20339;-79
2022/10/02 04:26:39;;;;;;;38.00;35.50;;;;;;;18.05;100.00;100562.13;6156946;23;20088;-79
2022/10/02 04:29:16;;;;;;;34.35;32.08;;;;;;;17.69;100.00;100566.41;6156950;23;20021;-79
2022/10/02 04:31:45;;;;;;;34.25;31.55;;;;;;;17.90;100.00;100563.91;6158330;23;20017;-79
2022/10/02 04:34:13;;;;;;;33.05;30.90;;;;;;;17.71;100.00;100564.28;6157867;23;20029;-79
2022/10/02 04:37:01;;;;;;;33.10;30.90;;;;;;;18.85;100.00;100567.41;6163947;23;20097;-78
2022/10/02 04:39:59;;;;;;;34.83;31.92;;;;;;;18.15;100.00;100553.31;6163873;23;20021;-79
2022/10/02 04:42:39;;;;;;;35.83;33.35;;;;;;;17.71;100.00;100558.91;6034220;23;20092;-79
2022/10/02 04:45:22;;;;;;;36.55;34.25;;;;;;;17.66;100.00;100550.00;6130146;23;20021;-80
2022/10/02 04:48:43;;;;;;;34.65;32.38;;;;;;;19.01;100.00;100552.09;6130526;23;20078;-79
2022/10/02 04:51:29;;;;;;;33.05;30.90;;;;;;;18.08;100.00;100569.66;6129761;23;20022;-79
2022/10/02 04:54:12;;;;;;;32.03;30.13;;;;;;;17.77;100.00;100579.41;6128150;23;20100;-79
2022/10/02 04:56:55;;;;;;;33.35;30.95;;;;;;;17.65;100.00;100581.44;6127567;23;20033;-80
2022/10/02 04:59:37;;;;;;;33.15;31.10;;;;;;;18.05;100.00;100586.31;6127245;23;20049;-79
2022/10/02 05:02:20;;;;;;;33.47;31.47;;;;;;;17.79;100.00;100589.88;6128782;23;20032;-78
2022/10/02 05:05:02;;;;;;;33.03;30.95;;;;;;;18.48;100.00;100586.28;6126659;23;20246;-79
2022/10/02 05:08:05;;;;;;;34.63;32.15;;;;;;;17.18;100.00;100606.19;6126921;23;20100;-79
2022/10/02 05:10:54;;;;;;;37.15;34.95;;;;;;;17.75;100.00;100599.50;6047020;23;20025;-79
2022/10/02 05:13:37;;;;;;;35.20;32.92;;;;;;;17.55;100.00;100614.38;6099590;23;20092;-79
2022/10/02 05:16:21;;;;;;;33.17;31.15;;;;;;;17.47;100.00;100614.81;6100894;23;20085;-79
2022/10/02 05:19:16;;;;;;;33.78;31.48;;;;;;;18.96;100.00;100616.66;6099367;23;20026;-80
2022/10/02 05:22:02;;;;;;;32.00;29.85;;;;;;;18.07;100.00;100613.75;6099617;23;20018;-80
2022/10/02 05:24:44;;;;;;;31.88;29.88;;;;;;;17.71;100.00;100623.38;6097192;23;20030;-79
2022/10/02 05:27:19;;;;;;;;;;;;;;;17.34;100.00;100626.78;6099139;23;20022;-80
2022/10/02 05:30:04;;;;;;;33.75;31.65;;;;;;;17.71;100.00;100625.25;6098797;23;19944;-80
2022/10/02 05:33:10;;;;;;;35.72;33.17;;;;;;;17.47;100.00;100625.56;6098153;23;20022;-80
2022/10/02 05:36:01;;;;;;;33.90;31.85;;;;;;;18.11;100.00;100638.22;6100142;23;20075;-80
2022/10/02 05:38:50;;;;;;;33.10;31.00;;;;;;;18.02;100.00;100643.25;6097687;23;20026;-80
2022/10/02 05:41:23;;;;;;;32.15;30.15;;;;;;;17.35;100.00;100632.97;6097290;23;20025;-80
2022/10/02 05:44:01;;;;;;;34.92;32.83;;;;;;;17.79;100.00;100639.06;6097037;23;20448;-79
2022/10/02 05:46:35;;;;;;;33.75;31.55;;;;;;;17.80;100.00;100651.41;6097610;23;20101;-78
2022/10/02 05:49:09;;;;;;;33.33;31.13;;;;;;;18.11;100.00;100650.84;6099303;23;20075;-80
2022/10/02 05:51:44;;;;;;;33.50;31.42;;;;;;;18.27;100.00;100636.44;6097843;23;20097;-79
2022/10/02 05:54:27;;;;;;;32.50;30.52;;;;;;;18.54;100.00;100634.47;6099526;23;20034;-79
2022/10/02 05:57:00;;;;;;;32.72;30.63;;;;;;;18.62;100.00;100630.47;6099465;23;20022;-79
2022/10/02 05:59:41;;;;;;;30.98;29.00;;;;;;;18.53;100.00;100645.50;6099832;23;20050;-79
2022/10/02 06:02:20;;;;;;;30.83;28.90;;;;;;;19.02;100.00;100641.72;6097886;23;20089;-79
2022/10/02 06:04:54;;;;;;;33.40;31.20;;;;;;;17.78;100.00;100660.78;6098894;23;20037;-79
2022/10/02 06:07:24;;;;;;;35.67;32.58;;;;;;;18.41;100.00;100650.25;6098374;23;20023;-80
2022/10/02 06:09:58;;;;;;;33.00;30.65;;;;;;;19.08;100.00;100649.53;6097618;23;20030;-79
2022/10/02 06:12:32;;;;;;;30.67;28.77;;;;;;;19.82;100.00;100653.75;6099889;23;20321;-79
2022/10/02 06:15:03;;;;;;;31.70;29.80;;;;;;;18.88;100.00;100646.75;6100347;23;20015;-80
2022/10/02 06:17:36;;;;;;;33.45;31.48;;;;;;;18.38;100.00;100654.28;6100418;23;20097;-78
2022/10/02 06:20:14;;;;;;;31.83;29.73;;;;;;;19.66;100.00;100658.31;6101259;23;20317;-79
2022/10/02 06:22:48;;;;;;;33.13;31.08;;;;;;;19.06;100.00;100654.38;6101777;23;20451;-79
2022/10/02 06:25:24;;;;;;;37.05;34.55;;;;;;;18.64;100.00;100668.69;6099326;23;20018;-80
2022/10/02 06:27:57;;;;;;;35.20;33.08;;;;;;;19.16;100.00;100662.50;6100648;23;20335;-78
2022/10/02 06:30:26;;;;;;;35.67;33.35;;;;;;;19.31;100.00;100669.00;6100761;23;20460;-80
2022/10/02 06:32:55;;;;;;;32.08;29.65;;;;;;;20.02;100.00;100671.00;6099515;23;20014;-79
2022/10/02 06:35:41;;;;;;;34.05;31.90;;;;;;;18.43;100.00;100683.91;6100756;23;20085;-80
2022/10/02 06:38:28;;;;;;;33.33;31.13;;;;;;;19.62;100.00;100688.72;6099184;23;20019;-80
2022/10/02 06:41:02;;;;;;;33.40;31.17;;;;;;;18.77;100.00;100675.50;6100284;23;20045;-78
2022/10/02 06:43:44;;;;;;;35.70;33.50;;;;;;;18.97;100.00;100664.84;6103073;23;20029;-78
2022/10/02 06:46:25;;;;;;;34.13;31.63;;;;;;;18.88;100.00;100663.75;6099754;23;20018;-80
2022/10/02 06:49:00;;;;;;;33.50;31.50;;;;;;;19.28;100.00;100656.06;6100618;23;20033;-80
2022/10/02 06:51:37;;;;;;;35.55;33.25;;;;;;;19.03;100.00;100667.53;6104466;23;20022;-79
2022/10/02 06:54:25;;;;;;;34.80;32.70;;;;;;;19.61;100.00;100668.25;6100766;23;20018;-80
2022/10/02 06:57:21;;;;;;;33.80;31.50;;;;;;;19.45;100.00;100662.84;6103329;23;20022;-79
2022/10/02 07:00:13;;;;;;;31.83;29.92;;;;;;;18.71;100.00;100673.84;6102393;23;20018;-80
2022/10/02 07:03:08;;;;;;;32.83;30.77;;;;;;;19.17;100.00;100679.44;6105803;23;20066;-79
2022/10/02 07:06:15;;;;;;;31.98;30.02;;;;;;;19.30;100.00;100660.09;6109154;23;20018;-79
2022/10/02 07:09:12;;;;;;;33.42;30.98;;;;;;;19.36;100.00;100669.81;6062196;23;20022;-81
2022/10/02 07:11:52;;;;;;;32.72;30.73;;;;;;;19.08;100.00;100663.00;6101476;23;20022;-77
2022/10/02 07:14:31;;;;;;;32.45;30.35;;;;;;;18.92;100.00;100667.50;6101201;23;20025;-79
2022/10/02 07:17:31;;;;;;;31.92;29.92;;;;;;;20.07;100.00;100668.31;6100351;23;20033;-79
2022/10/02 07:20:17;;;;;;;30.50;28.60;;;;;;;19.96;100.00;100675.59;6057149;23;20023;-80
2022/10/02 07:23:11;;;;;;;30.75;28.58;;;;;;;20.10;100.00;100694.75;6099743;23;20082;-79
2022/10/02 07:25:54;;;;;;;30.02;28.10;;;;;;;20.14;100.00;100683.13;6099551;23;20090;-80
2022/10/02 07:28:34;;;;;;;29.27;27.48;;;;;;;19.27;100.00;100702.91;6101862;23;20027;-80
2022/10/02 07:31:10;;;;;;;30.17;28.38;;;;;;;20.03;100.00;100702.25;6103831;23;20030;-77
2022/10/02 07:33:51;;;;;;;31.10;28.95;;;;;;;18.50;100.00;100689.03;6105288;23;20023;-79
2022/10/02 07:36:30;;;;;;;29.90;27.90;;;;;;;18.97;100.00;100715.97;6103250;23;20022;-78
2022/10/02 07:39:10;;;;;;;29.95;27.85;;;;;;;19.85;100.00;100704.44;6099642;23;20527;-78
2022/10/02 07:42:13;;;;;;;29.02;27.23;;;;;;;20.32;100.00;100706.03;6098416;23;20022;-79
2022/10/02 07:45:04;;;;;;;30.45;28.38;;;;;;;20.25;100.00;100713.59;6099894;23;20475;-79
2022/10/02 07:47:50;;;;;;;28.58;26.75;;;;;;;19.88;100.00;100722.75;6100927;23;20054;-77
2022/10/02 07:50:24;;;;;;;28.88;26.88;;;;;;;20.47;100.00;100716.00;6102671;23;20097;-80
2022/10/02 07:53:03;;;;;;;28.60;26.67;;;;;;;20.22;100.00;100727.63;6100459;23;20029;-79
2022/10/02 07:55:30;;;;;;;27.52;25.73;;;;;;;20.27;100.00;100727.63;6101775;23;20022;-79
2022/10/02 07:58:04;;;;;;;29.63;27.73;;;;;;;20.84;100.00;100725.69;6101239;23;20018;-79
2022/10/02 08:00:35;;;;;;;33.60;27.10;;;;;;;20.75;100.00;100736.22;6100774;23;20046;-80
2022/10/02 08:03:07;;;;;;;28.73;26.77;;;;;;;21.47;100.00;100730.59;6105616;23;20313;-78
2022/10/02 08:05:38;;;;;;;31.88;28.75;;;;;;;21.30;100.00;100730.91;6103081;23;20518;-79
2022/10/02 08:08:16;;;;;;;28.42;26.30;;;;;;;19.95;100.00;100732.47;6101941;23;20424;-78
2022/10/02 08:10:49;;;;;;;28.25;26.45;;;;;;;20.91;100.00;100742.41;6100700;23;20026;-79
2022/10/02 08:13:19;;;;;;;26.65;24.83;;;;;;;21.35;100.00;100746.31;6108284;23;20056;-79
2022/10/02 08:15:50;;;;;;;27.77;26.08;;;;;;;20.01;100.00;100734.09;6106771;23;20022;-79
2022/10/02 08:18:25;;;;;;;27.67;25.67;;;;;;;20.49;100.00;100746.22;6108265;23;20054;-79
2022/10/02 08:20:55;;;;;;;29.27;27.38;;;;;;;20.36;100.00;100758.38;6101468;23;20348;-79
2022/10/02 08:23:28;;;;;;;29.45;27.55;;;;;;;21.40;100.00;100749.03;6107521;23;20468;-78
2022/10/02 08:26:01;;;;;;;30.70;28.75;;;;;;;20.95;100.00;100753.47;6101054;23;20037;-77
2022/10/02 08:28:31;;;;;;;30.77;28.60;;;;;;;21.22;100.00;100767.41;6112772;23;20018;-77
2022/10/02 08:31:00;;;;;;;28.05;26.25;;;;;;;21.13;100.00;100773.66;6108528;23;20018;-78
2022/10/02 08:33:31;;;;;;;30.67;28.88;;;;;;;21.14;100.00;100767.19;6112239;23;20008;-79
2022/10/02 08:36:19;;;;;;;28.75;26.95;;;;;;;21.69;100.00;100757.22;6112398;23;20042;-77
2022/10/02 08:38:50;;;;;;;29.85;27.95;;;;;;;21.39;100.00;100761.72;6098820;23;20029;-77
2022/10/02 08:41:56;;;;;;;31.83;29.48;;;;;;;21.19;100.00;100748.25;6115505;23;20018;-77
2022/10/02 08:44:56;;;;;;;30.60;28.60;;;;;;;21.60;100.00;100775.13;6024051;23;20080;-79
2022/10/02 08:47:58;;;;;;;29.25;27.45;;;;;;;21.71;100.00;100738.84;6099607;23;20022;-79
2022/10/02 08:51:04;;;;;;;30.48;28.52;;;;;;;21.25;100.00;100774.97;6112010;23;20043;-79
2022/10/02 08:54:04;;;;;;;27.67;25.98;;;;;;;20.78;100.00;100776.16;6107867;23;20026;-78
2022/10/02 08:56:49;;;;;;;29.08;26.98;;;;;;;21.82;100.00;100766.63;6102929;23;20048;-78
2022/10/02 09:00:01;;;;;;;31.15;29.30;;;;;;;21.80;100.00;100761.50;6116289;23;20027;-77
2022/10/02 09:03:13;;;;;;;31.48;29.52;;;;;;;21.18;100.00;100773.63;6103950;23;20030;-83
2022/10/02 09:06:25;;;;;;;29.92;27.83;;;;;;;21.88;100.00;100771.72;6096178;23;20085;-82
2022/10/02 09:09:24;;;;;;;31.27;29.27;;;;;;;21.17;100.00;100775.53;6044168;23;20026;-82
2022/10/02 09:12:43;;;;;;;29.88;27.55;;;;;;;20.94;100.00;100795.06;6097334;23;20038;-83
2022/10/02 09:15:16;;;;;;;30.23;28.23;;;;;;;20.93;100.00;100796.91;6097003;23;20308;-82
2022/10/02 09:17:47;;;;;;;30.92;28.92;;;;;;;21.72;100.00;100778.28;6096273;23;20022;-82
2022/10/02 09:20:56;;;;;;;31.35;29.25;;;;;;;22.13;100.00;100772.63;6097591;23;20328;-85
2022/10/02 09:24:04;;;;;;;32.75;30.65;;;;;;;21.68;100.00;100761.84;6097675;23;20033;-82
2022/10/02 09:26:51;;;;;;;31.48;29.58;;;;;;;22.36;100.00;100771.97;6097094;23;20018;-80
2022/10/02 09:29:54;;;;;;;31.00;28.90;;;;;;;22.81;100.00;100772.63;6097943;23;20015;-82
2022/10/02 09:32:42;;;;;;;;;;;;;;;21.87;100.00;100782.81;6097722;23;20018;-81
2022/10/02 09:35:33;;;;;;;31.10;29.10;;;;;;;21.47;100.00;100798.94;6097794;23;19917;-78
2022/10/02 09:38:28;;;;;;;32.90;30.40;;;;;;;22.42;100.00;100786.22;6097596;23;20026;-78
2022/10/02 09:41:30;;;;;;;29.38;27.42;;;;;;;21.93;100.00;100790.59;6100777;23;20037;-79
2022/10/02 09:44:27;;;;;;;30.83;28.58;;;;;;;22.59;100.00;100792.03;6093293;23;20025;-80
2022/10/02 09:47:48;;;;;;;29.95;27.85;;;;;;;22.41;100.00;100793.53;6099057;23;20101;-80
2022/10/02 09:50:56;;;;;;;29.38;27.38;;;;;;;22.76;100.00;100774.56;6097808;23;20014;-79
2022/10/02 09:53:56;;;;;;;30.33;28.17;;;;;;;22.63;100.00;100782.28;6043542;23;20089;-80
2022/10/02 09:56:57;;;;;;;30.05;28.05;;;;;;;22.98;100.00;100783.03;6098316;23;20053;-79
2022/10/02 09:59:57;;;;;;;28.77;26.67;;;;;;;22.71;100.00;100777.31;6064364;23;20022;-80
2022/10/02 10:02:58;;;;;;;28.85;26.95;;;;;;;22.70;100.00;100781.13;6094041;23;20109;-80
2022/10/02 10:05:46;;;;;;;28.15;26.10;;;;;;;22.42;100.00;100791.63;6098746;23;20019;-79
2022/10/02 10:08:34;;;;;;;28.05;26.08;;;;;;;22.84;100.00;100776.63;6097459;23;20022;-81
2022/10/02 10:11:22;;;;;;;27.27;25.55;;;;;;;23.01;100.00;100765.41;6096899;23;20023;-79
2022/10/02 10:14:28;;;;;;;27.95;26.00;;;;;;;23.29;100.00;100766.41;6096832;23;20071;-80
2022/10/02 10:17:29;;;;;;;28.60;26.50;;;;;;;23.61;100.00;100781.22;6096774;23;20018;-79
2022/10/02 10:20:26;;;;;;;27.30;25.33;;;;;;;23.74;100.00;100775.09;6097203;23;20022;-80
2022/10/02 10:23:11;;;;;;;27.00;25.30;;;;;;;23.83;100.00;100783.38;6097184;23;20110;-80
2022/10/02 10:26:04;;;;;;;29.58;27.15;;;;;;;23.43;100.00;100764.63;6096956;23;20018;-81
2022/10/02 10:29:00;;;;;;;27.80;25.90;;;;;;;23.28;100.00;100797.34;6097065;23;20022;-82
2022/10/02 10:32:04;;;;;;;28.08;26.27;;;;;;;23.07;100.00;100794.03;6096742;23;20018;-80
2022/10/02 10:35:09;;;;;;;27.52;25.73;;;;;;;23.16;100.00;100802.34;6096928;23;20023;-80
2022/10/02 10:41:11;;;;;;;26.15;24.30;;;;;;;23.21;100.00;100791.47;6097242;23;20033;-80
2022/10/02 10:44:11;;;;;;;27.67;25.98;;;;;;;23.04;100.00;100792.72;6097007;23;20028;-79
2022/10/02 10:47:03;;;;;;;27.48;25.48;;;;;;;23.71;100.00;100786.50;6062797;23;20027;-80
2022/10/02 10:49:56;;;;;;;27.10;25.20;;;;;;;24.12;98.31;100799.50;6097097;23;20026;-80
2022/10/02 10:52:43;;;;;;;27.92;25.85;;;;;;;23.22;100.00;100776.81;6096790;23;20460;-79
2022/10/02 10:55:18;;;;;;;28.42;26.42;;;;;;;23.88;94.98;100788.72;6097714;23;20058;-81
2022/10/02 10:58:00;;;;;;;27.30;25.30;;;;;;;23.68;95.11;100768.91;6097794;23;20038;-80
2022/10/02 11:00:33;;;;;;;28.52;25.80;;;;;;;23.78;95.44;100770.69;6070096;23;20452;-81
2022/10/02 11:03:40;;;;;;;28.63;26.60;;;;;;;23.54;98.39;100776.13;6069745;23;20031;-79
2022/10/02 11:06:33;;;;;;;30.27;27.67;;;;;;;23.45;92.95;100764.31;6069689;23;20031;-79
2022/10/02 11:09:19;;;;;;;29.65;27.45;;;;;;;23.93;97.16;100764.22;6069771;23;20019;-79
2022/10/02 11:12:12;;;;;;;28.10;25.90;;;;;;;24.05;85.55;100770.00;6069587;23;20094;-79
2022/10/02 11:14:54;;;;;;;28.15;26.35;;;;;;;24.35;83.96;100779.56;6069488;23;20033;-81
2022/10/02 11:17:56;;;;;;;29.33;27.23;;;;;;;23.72;92.74;100775.41;6069902;23;20030;-81
2022/10/02 11:21:01;;;;;;;28.98;26.88;;;;;;;24.17;93.96;100777.69;6069576;23;20026;-80
2022/10/02 11:23:57;;;;;;;29.50;27.15;;;;;;;24.10;89.04;100764.50;6062673;23;20029;-78
2022/10/02 11:26:41;;;;;;;28.70;26.70;;;;;;;23.35;84.94;100786.94;6069386;23;20033;-81
2022/10/02 11:29:34;;;;;;;30.75;28.25;;;;;;;23.41;99.52;100774.13;6069739;23;20018;-80
2022/10/02 11:32:26;;;;;;;27.92;26.02;;;;;;;22.81;84.00;100778.03;6069636;23;20023;-78
2022/10/02 11:35:04;;;;;;;;;;;;;;;23.35;88.73;100773.41;6069718;23;20031;-84
2022/10/02 11:37:51;;;;;;;31.42;29.20;;;;;;;23.80;89.22;100762.25;6069428;23;20239;-80
2022/10/02 11:40:40;;;;;;;31.38;29.45;;;;;;;24.14;88.58;100762.00;6069615;23;20030;-79
2022/10/02 11:43:33;;;;;;;29.10;27.08;;;;;;;24.20;82.54;100758.91;6069294;23;20033;-79
2022/10/02 11:46:27;;;;;;;29.63;27.63;;;;;;;24.00;79.41;100770.91;6069255;23;20030;-82
2022/10/02 11:49:19;;;;;;;30.30;28.30;;;;;;;23.75;75.81;100763.13;6069048;23;20023;-79
2022/10/02 11:52:30;;;;;;;31.50;29.33;;;;;;;23.86;75.00;100758.38;6069189;23;20090;-78
2022/10/02 11:55:10;;;;;;;29.10;27.30;;;;;;;24.05;80.84;100780.88;6010674;23;20455;-81
2022/10/02 11:57:50;;;;;;;30.20;27.67;;;;;;;24.00;86.58;100761.97;6010331;23;20023;-80
2022/10/02 12:01:13;;;;;;;30.00;27.60;;;;;;;24.30;77.29;100776.13;6051450;23;20472;-78
2022/10/02 12:03:57;;;;;;;30.65;28.65;;;;;;;24.28;85.28;100787.31;5954361;24;20096;-78
2022/10/02 12:06:44;;;;;;;30.35;28.35;;;;;;;24.28;81.37;100795.44;6054662;23;20095;-79
2022/10/02 12:09:19;;;;;;;29.65;27.75;;;;;;;24.11;82.81;100789.72;6068876;23;20038;-78
2022/10/02 12:12:01;;;;;;;31.13;29.23;;;;;;;24.10;79.60;100785.41;6069300;23;20026;-78
2022/10/02 12:14:36;;;;;;;30.52;28.27;;;;;;;24.10;77.71;100794.34;6068905;23;20019;-78